Time;durP1;ratioP1;P1;durP2;ratioP2;P2;SDS_P1;SDS_P2;PMS_P1;PMS_P2;Temp;Humidity;BMP_temperature;BMP_pressure;BME280_temperature;BME280_humidity;BME280_pressure;Samples;Min_cycle;Max_cycle;Signal;HPM_P1;HPM_P2
2022/08/10 00:00:52;;;;;;;;;;;20.50;99.90;;;;;;4594813;19;19919;-33
2022/08/10 00:02:23;;;;;;;;;;;20.50;99.90;;;;;;4594671;19;19936;-40
2022/08/10 00:03:54;;;;;;;;;;;20.50;99.90;;;;;;4594429;19;19915;-36
2022/08/10 00:05:27;;;;;;;;;;;20.60;99.90;;;;;;4594523;19;19963;-39
2022/08/10 00:06:58;;;;;;;;;;;20.50;99.90;;;;;;4594946;19;19915;-38
2022/08/10 00:08:29;;;;;;;;;;;20.50;99.90;;;;;;4594170;19;19935;-33
2022/08/10 00:10:00;;;;;;;;;;;20.50;99.90;;;;;;4594266;19;19919;-37
2022/08/10 00:11:31;;;;;;;;;;;20.60;99.90;;;;;;4592981;19;19919;-33
2022/08/10 00:13:02;;;;;;;;;;;20.60;99.90;;;;;;4594679;19;19918;-38
2022/08/10 00:14:33;;;;;;;;;;;20.60;99.90;;;;;;4593756;19;19923;-34
2022/08/10 00:16:04;;;;;;;;;;;20.60;99.90;;;;;;4593906;19;19923;-33
2022/08/10 00:17:34;;;;;;;;;;;20.60;99.90;;;;;;4594426;19;19915;-33
2022/08/10 00:19:06;;;;;;;;;;;20.60;99.90;;;;;;4594544;19;19914;-33
2022/08/10 00:20:37;;;;;;;;;;;20.60;99.90;;;;;;4593825;19;19974;-43
2022/08/10 00:22:10;;;;;;;;;;;20.50;99.90;;;;;;4593930;19;19914;-37
2022/08/10 00:23:41;;;;;;;;;;;20.50;99.90;;;;;;4594369;19;19919;-37
2022/08/10 00:25:12;;;;;;;;;;;20.50;99.90;;;;;;4594093;19;20354;-33
2022/08/10 00:26:43;;;;;;;;;;;20.50;99.90;;;;;;4593852;19;19915;-33
2022/08/10 00:28:14;;;;;;;;;;;20.50;99.90;;;;;;4592623;19;19915;-38
2022/08/10 00:29:45;;;;;;;;;;;20.50;99.90;;;;;;4593823;19;19982;-33
2022/08/10 00:31:16;;;;;;;;;;;20.50;99.90;;;;;;4592401;19;19915;-34
2022/08/10 00:32:47;;;;;;;;;;;20.50;99.90;;;;;;4593306;19;19925;-33
2022/08/10 00:34:18;;;;;;;;;;;20.50;99.90;;;;;;4592635;19;19907;-37
2022/08/10 00:35:48;;;;;;;;;;;20.50;99.90;;;;;;4594045;19;19918;-33
2022/08/10 00:37:19;;;;;;;;;;;20.50;99.90;;;;;;4593530;19;19927;-37
2022/08/10 00:38:50;;;;;;;;;;;20.50;99.90;;;;;;4593557;19;19918;-35
2022/08/10 00:40:21;;;;;;;;;;;19.50;99.90;;;;;;4593579;19;19911;-35
2022/08/10 00:41:52;;;;;;;;;;;17.70;99.90;;;;;;4594155;19;19915;-34
2022/08/10 00:43:24;;;;;;;;;;;17.10;99.90;;;;;;4593376;19;19926;-31
2022/08/10 00:44:55;;;;;;;;;;;16.90;99.90;;;;;;4593618;19;19919;-36
2022/08/10 00:46:25;;;;;;;;;;;16.80;99.90;;;;;;4594059;19;20321;-35
2022/08/10 00:47:56;;;;;;;;;;;16.70;99.90;;;;;;4593566;19;19918;-32
2022/08/10 00:49:28;;;;;;;;;;;16.70;99.90;;;;;;4593346;19;19926;-33
2022/08/10 00:50:58;;;;;;;;;;;16.60;99.90;;;;;;4592950;19;19915;-33
2022/08/10 00:52:30;;;;;;;;;;;16.60;99.90;;;;;;4592661;19;19998;-34
2022/08/10 00:54:00;;;;;;;;;;;16.50;99.90;;;;;;4592515;19;19914;-33
2022/08/10 00:55:32;;;;;;;;;;;16.50;99.90;;;;;;4593524;19;19939;-32
2022/08/10 00:57:03;;;;;;;;;;;16.50;99.90;;;;;;4593733;19;19914;-37
2022/08/10 00:58:35;;;;;;;;;;;16.50;99.90;;;;;;4593679;19;19914;-33
2022/08/10 01:00:06;;;;;;;;;;;16.50;99.90;;;;;;4591776;19;19925;-38
2022/08/10 01:01:38;;;;;;;;;;;16.40;99.90;;;;;;4592970;19;19918;-34
2022/08/10 01:03:08;;;;;;;;;;;16.40;99.90;;;;;;4593290;19;19979;-38
2022/08/10 01:04:39;;;;;;;;;;;16.40;99.90;;;;;;4592880;19;20325;-35
2022/08/10 01:06:16;;;;;;;;;;;16.40;99.90;;;;;;4590597;19;19911;-33
2022/08/10 01:07:48;;;;;;;;;;;16.40;99.90;;;;;;4591839;19;19915;-38
2022/08/10 01:09:20;;;;;;;;;;;16.40;99.90;;;;;;4592995;19;20309;-38
2022/08/10 01:10:52;;;;;;;;;;;16.40;99.90;;;;;;4591917;19;19910;-37
2022/08/10 01:12:27;;;;;;;;;;;16.40;99.90;;;;;;4592924;19;19974;-41
2022/08/10 01:14:06;;;;;;;;;;;16.40;99.90;;;;;;4591716;19;20396;-40
2022/08/10 01:15:55;;;;;;;;;;;16.40;99.90;;;;;;4592000;19;19922;-36
2022/08/10 01:17:29;;;;;;;;;;;16.30;99.90;;;;;;4592596;19;20053;-38
2022/08/10 01:19:11;;;;;;;;;;;16.30;99.90;;;;;;4592492;19;19914;-36
2022/08/10 01:20:42;;;;;;;;;;;16.30;99.90;;;;;;4591956;19;19921;-40
2022/08/10 01:22:19;;;;;;;;;;;16.20;99.90;;;;;;4592217;19;19926;-39
2022/08/10 01:23:50;;;;;;;;;;;16.30;99.90;;;;;;4591375;19;19956;-35
2022/08/10 01:25:24;;;;;;;;;;;16.20;99.90;;;;;;4592101;19;19974;-32
2022/08/10 01:26:56;;;;;;;;;;;16.20;99.90;;;;;;4592762;19;19929;-37
2022/08/10 01:28:59;;;;;;;;;;;16.20;99.90;;;;;;4591943;19;19914;-37
2022/08/10 01:30:31;;;;;;;;;;;16.20;99.90;;;;;;4589722;19;20322;-42
2022/08/10 01:32:02;;;;;;;;;;;16.20;99.90;;;;;;4590544;19;19952;-38
2022/08/10 01:33:40;;;;;;;;;;;16.20;99.90;;;;;;4590005;19;20014;-37
2022/08/10 01:35:13;;;;;;;;;;;16.20;99.90;;;;;;4590019;19;19919;-40
2022/08/10 01:36:45;;;;;;;;;;;16.10;99.90;;;;;;4590138;19;19917;-39
2022/08/10 01:38:17;;;;;;;;;;;16.10;99.90;;;;;;4590821;19;19947;-34
2022/08/10 01:39:50;;;;;;;;;;;16.10;99.90;;;;;;4590107;19;19926;-42
2022/08/10 01:41:22;;;;;;;;;;;16.10;99.90;;;;;;4589937;19;19911;-39
2022/08/10 01:42:54;;;;;;;;;;;16.10;99.90;;;;;;4590091;19;19922;-37
2022/08/10 01:44:29;;;;;;;;;;;16.10;99.90;;;;;;4587611;19;19918;-36
2022/08/10 01:46:00;;;;;;;;;;;16.00;99.90;;;;;;4589884;19;19984;-39
2022/08/10 01:49:25;;;;;;;;;;;16.00;99.90;;;;;;4590103;19;20006;-38
2022/08/10 01:51:00;;;;;;;;;;;16.00;99.90;;;;;;4590055;19;19923;-37
2022/08/10 01:52:31;;;;;;;;;;;15.90;99.90;;;;;;4589886;19;19926;-37
2022/08/10 01:54:03;;;;;;;;;;;16.00;99.90;;;;;;4589758;19;20360;-33
2022/08/10 01:55:35;;;;;;;;;;;16.00;99.90;;;;;;4589923;19;20300;-41
2022/08/10 01:57:09;;;;;;;;;;;15.90;99.90;;;;;;4589857;19;19929;-39
2022/08/10 01:58:39;;;;;;;;;;;15.90;99.90;;;;;;4589646;19;19918;-38
2022/08/10 02:00:10;;;;;;;;;;;15.90;99.90;;;;;;4589745;19;20253;-39
2022/08/10 02:01:52;;;;;;;;;;;15.90;99.90;;;;;;4589834;19;20350;-40
2022/08/10 02:03:23;;;;;;;;;;;15.90;99.90;;;;;;4589998;19;19921;-36
2022/08/10 02:04:54;;;;;;;;;;;15.90;99.90;;;;;;4589402;19;19931;-38
2022/08/10 02:06:25;;;;;;;;;;;15.90;99.90;;;;;;4590180;19;20325;-33
2022/08/10 02:07:57;;;;;;;;;;;15.90;99.90;;;;;;4590932;19;19914;-40
2022/08/10 02:09:32;;;;;;;;;;;15.90;99.90;;;;;;4590874;19;19996;-37
2022/08/10 02:11:03;;;;;;;;;;;15.90;99.90;;;;;;4589806;19;19946;-37
2022/08/10 02:12:34;;;;;;;;;;;15.90;99.90;;;;;;4591476;19;20324;-39
2022/08/10 02:14:05;;;;;;;;;;;15.80;99.90;;;;;;4590919;19;19919;-40
2022/08/10 02:15:36;;;;;;;;;;;15.80;99.90;;;;;;4591109;19;19915;-38
2022/08/10 02:17:08;;;;;;;;;;;15.80;99.90;;;;;;4590599;19;19915;-40
2022/08/10 02:18:39;;;;;;;;;;;15.80;99.90;;;;;;4590944;19;19978;-34
2022/08/10 02:20:11;;;;;;;;;;;15.80;99.90;;;;;;4591566;19;19938;-41
2022/08/10 02:21:43;;;;;;;;;;;15.80;99.90;;;;;;4590335;19;19922;-37
2022/08/10 02:23:18;;;;;;;;;;;15.80;99.90;;;;;;4591173;19;19967;-34
2022/08/10 02:24:49;;;;;;;;;;;15.80;99.90;;;;;;4591710;19;19918;-38
2022/08/10 02:26:20;;;;;;;;;;;15.80;99.90;;;;;;4590876;19;19921;-35
2022/08/10 02:27:51;;;;;;;;;;;15.80;99.90;;;;;;4590783;19;19918;-37
2022/08/10 02:29:22;;;;;;;;;;;15.80;99.90;;;;;;4590218;19;19930;-39
2022/08/10 02:30:53;;;;;;;;;;;15.80;99.90;;;;;;4589645;19;19927;-37
2022/08/10 02:32:24;;;;;;;;;;;15.80;99.90;;;;;;4591273;19;19951;-36
2022/08/10 02:33:55;;;;;;;;;;;15.80;99.90;;;;;;4590189;19;19915;-36
2022/08/10 02:35:26;;;;;;;;;;;15.70;99.90;;;;;;4590784;19;19911;-40
2022/08/10 02:36:57;;;;;;;;;;;15.70;99.90;;;;;;4590090;19;20230;-35
2022/08/10 02:38:32;;;;;;;;;;;15.70;99.90;;;;;;4590115;19;19973;-36
2022/08/10 02:40:03;;;;;;;;;;;15.70;99.90;;;;;;4590236;19;19970;-38
2022/08/10 02:41:38;;;;;;;;;;;15.70;99.90;;;;;;4590980;19;19918;-40
2022/08/10 02:43:16;;;;;;;;;;;15.70;99.90;;;;;;4590257;19;19914;-41
2022/08/10 02:44:56;;;;;;;;;;;15.70;99.90;;;;;;4589253;19;19978;-33
2022/08/10 02:46:32;;;;;;;;;;;15.70;99.90;;;;;;4589957;19;19919;-39
2022/08/10 02:48:08;;;;;;;;;;;15.60;99.90;;;;;;4590160;19;19967;-35
2022/08/10 02:49:40;;;;;;;;;;;15.60;99.90;;;;;;4590212;19;20361;-36
2022/08/10 02:51:16;;;;;;;;;;;15.60;99.90;;;;;;4589845;19;19986;-39
2022/08/10 02:52:49;;;;;;;;;;;15.60;99.90;;;;;;4589788;19;19915;-42
2022/08/10 02:54:20;;;;;;;;;;;15.60;99.90;;;;;;4589155;19;19915;-32
2022/08/10 02:55:55;;;;;;;;;;;15.60;99.90;;;;;;4590142;19;20367;-38
2022/08/10 02:57:27;;;;;;;;;;;15.60;99.90;;;;;;4594696;19;19956;-38
2022/08/10 02:59:00;;;;;;;;;;;15.60;99.90;;;;;;4594373;19;19944;-36
2022/08/10 03:00:30;;;;;;;;;;;15.60;99.90;;;;;;4594375;19;19919;-34
2022/08/10 03:02:02;;;;;;;;;;;15.60;99.90;;;;;;4594568;19;19927;-39
2022/08/10 03:03:36;;;;;;;;;;;15.60;99.90;;;;;;4594468;19;19974;-35
2022/08/10 03:05:08;;;;;;;;;;;15.60;99.90;;;;;;4595145;19;19923;-35
2022/08/10 03:06:40;;;;;;;;;;;15.60;99.90;;;;;;4595657;19;19918;-34
2022/08/10 03:08:11;;;;;;;;;;;15.50;99.90;;;;;;4595956;19;19914;-36
2022/08/10 03:09:43;;;;;;;;;;;15.60;99.90;;;;;;4594076;19;20007;-38
2022/08/10 03:11:21;;;;;;;;;;;15.50;99.90;;;;;;4593217;19;19926;-37
2022/08/10 03:12:54;;;;;;;;;;;15.50;99.90;;;;;;4594459;19;19915;-38
2022/08/10 03:14:25;;;;;;;;;;;15.50;99.90;;;;;;4594536;19;19922;-38
2022/08/10 03:15:56;;;;;;;;;;;15.50;99.90;;;;;;4594212;19;19919;-39
2022/08/10 03:17:27;;;;;;;;;;;15.50;99.90;;;;;;4594273;19;19970;-36
2022/08/10 03:18:59;;;;;;;;;;;15.60;99.90;;;;;;4594186;19;19929;-37
2022/08/10 03:20:34;;;;;;;;;;;15.50;99.90;;;;;;4594558;19;19914;-37
2022/08/10 03:22:05;;;;;;;;;;;15.50;99.90;;;;;;4593908;19;19952;-37
2022/08/10 03:23:36;;;;;;;;;;;15.50;99.90;;;;;;4593916;19;19915;-39
2022/08/10 03:25:08;;;;;;;;;;;15.60;99.90;;;;;;4594822;19;19915;-38
2022/08/10 03:26:39;;;;;;;;;;;15.50;99.90;;;;;;4594483;19;19930;-32
2022/08/10 03:28:10;;;;;;;;;;;15.50;99.90;;;;;;4593839;19;19990;-39
2022/08/10 03:29:41;;;;;;;;;;;15.50;99.90;;;;;;4594070;19;19914;-38
2022/08/10 03:31:12;;;;;;;;;;;15.50;99.90;;;;;;4593115;19;19915;-37
2022/08/10 03:32:43;;;;;;;;;;;15.50;99.90;;;;;;4593948;19;20447;-37
2022/08/10 03:34:14;;;;;;;;;;;15.50;99.90;;;;;;4594392;19;19986;-37
2022/08/10 03:35:45;;;;;;;;;;;15.50;99.90;;;;;;4594988;19;20324;-35
2022/08/10 03:37:16;;;;;;;;;;;15.40;99.90;;;;;;4595434;19;19938;-39
2022/08/10 03:38:50;;;;;;;;;;;15.50;99.90;;;;;;4595058;19;20332;-40
2022/08/10 03:40:23;;;;;;;;;;;15.50;99.90;;;;;;4593784;19;19970;-35
2022/08/10 03:41:55;;;;;;;;;;;15.50;99.90;;;;;;4594993;19;19911;-38
2022/08/10 03:43:26;;;;;;;;;;;15.50;99.90;;;;;;4595068;19;19915;-42
2022/08/10 03:44:57;;;;;;;;;;;15.50;99.90;;;;;;4594597;19;19922;-36
2022/08/10 03:46:28;;;;;;;;;;;15.50;99.90;;;;;;4593558;19;19971;-38
2022/08/10 03:47:59;;;;;;;;;;;15.50;99.90;;;;;;4594630;19;19922;-39
2022/08/10 03:49:30;;;;;;;;;;;15.50;99.90;;;;;;4595273;19;19915;-37
2022/08/10 03:51:01;;;;;;;;;;;15.50;99.90;;;;;;4592712;19;19953;-38
2022/08/10 03:52:32;;;;;;;;;;;15.50;99.90;;;;;;4593894;19;19921;-35
2022/08/10 03:54:03;;;;;;;;;;;15.50;99.90;;;;;;4594277;19;20280;-34
2022/08/10 03:55:34;;;;;;;;;;;15.50;99.90;;;;;;4593715;19;20262;-37
2022/08/10 03:57:05;;;;;;;;;;;15.40;99.90;;;;;;4594068;19;19918;-36
2022/08/10 03:58:36;;;;;;;;;;;15.50;99.90;;;;;;4593045;19;19937;-34
2022/08/10 04:00:08;;;;;;;;;;;15.50;99.90;;;;;;4594081;19;20284;-42
2022/08/10 04:01:42;;;;;;;;;;;15.50;99.90;;;;;;4593144;19;19918;-37
2022/08/10 04:03:13;;;;;;;;;;;15.50;99.90;;;;;;4592029;19;20433;-34
2022/08/10 04:04:44;;;;;;;;;;;15.50;99.90;;;;;;4593379;19;20369;-40
2022/08/10 04:06:15;;;;;;;;;;;15.50;99.90;;;;;;4593632;19;19937;-34
2022/08/10 04:07:46;;;;;;;;;;;15.50;99.90;;;;;;4591831;19;20323;-39
2022/08/10 04:09:17;;;;;;;;;;;15.50;99.90;;;;;;4593747;19;19907;-35
2022/08/10 04:10:48;;;;;;;;;;;15.50;99.90;;;;;;4594120;19;19978;-39
2022/08/10 04:12:19;;;;;;;;;;;15.50;99.90;;;;;;4595074;19;19938;-35
2022/08/10 04:13:50;;;;;;;;;;;15.50;99.90;;;;;;4594210;19;19931;-32
2022/08/10 04:15:23;;;;;;;;;;;15.60;99.90;;;;;;4594139;19;19914;-36
2022/08/10 04:16:54;;;;;;;;;;;15.60;99.90;;;;;;4592973;19;19932;-34
2022/08/10 04:18:25;;;;;;;;;;;15.60;99.90;;;;;;4593634;19;20340;-34
2022/08/10 04:19:56;;;;;;;;;;;15.60;99.90;;;;;;4596126;19;19938;-37
2022/08/10 04:21:29;;;;;;;;;;;15.60;99.90;;;;;;4594207;19;19930;-34
2022/08/10 04:23:02;;;;;;;;;;;15.70;99.90;;;;;;4594702;19;19978;-39
2022/08/10 04:24:33;;;;;;;;;;;15.70;99.90;;;;;;4592705;19;20305;-40
2022/08/10 04:26:04;;;;;;;;;;;15.70;99.90;;;;;;4593791;19;19927;-34
2022/08/10 04:27:35;;;;;;;;;;;15.70;99.90;;;;;;4590534;19;19918;-37
2022/08/10 04:29:06;;;;;;;;;;;15.70;99.90;;;;;;4593838;19;19918;-40
2022/08/10 04:30:37;;;;;;;;;;;15.80;99.90;;;;;;4592583;19;19930;-33
2022/08/10 04:32:09;;;;;;;;;;;15.80;99.90;;;;;;4591814;19;19935;-31
2022/08/10 04:33:41;;;;;;;;;;;15.80;99.90;;;;;;4593506;19;19915;-36
2022/08/10 04:35:12;;;;;;;;;;;15.80;99.90;;;;;;4592920;19;20249;-38
2022/08/10 04:36:43;;;;;;;;;;;15.90;99.90;;;;;;4594217;19;19940;-34
2022/08/10 04:38:14;;;;;;;;;;;15.90;99.90;;;;;;4594020;19;19926;-38
2022/08/10 04:39:45;;;;;;;;;;;15.90;99.90;;;;;;4592873;19;19915;-37
2022/08/10 04:41:17;;;;;;;;;;;15.90;99.90;;;;;;4591419;19;19978;-37
2022/08/10 04:42:48;;;;;;;;;;;15.90;99.90;;;;;;4592423;19;19919;-37
2022/08/10 04:44:18;;;;;;;;;;;16.00;99.90;;;;;;4592732;19;19922;-33
2022/08/10 04:45:49;;;;;;;;;;;16.00;99.90;;;;;;4592258;19;19923;-37
2022/08/10 04:47:20;;;;;;;;;;;16.00;99.90;;;;;;4590841;19;20021;-40
2022/08/10 04:48:51;;;;;;;;;;;16.00;99.90;;;;;;4588172;19;19923;-34
2022/08/10 04:50:23;;;;;;;;;;;16.00;99.90;;;;;;4590271;19;19985;-39
2022/08/10 04:51:54;;;;;;;;;;;16.00;99.90;;;;;;4588725;19;20321;-34
2022/08/10 04:53:25;;;;;;;;;;;16.00;99.90;;;;;;4590484;19;19926;-38
2022/08/10 04:54:56;;;;;;;;;;;16.10;99.90;;;;;;4590403;19;20487;-36
2022/08/10 04:56:27;;;;;;;;;;;16.10;99.90;;;;;;4590801;19;20321;-39
2022/08/10 04:57:58;;;;;;;;;;;16.10;99.90;;;;;;4592234;19;19936;-35
2022/08/10 04:59:31;;;;;;;;;;;16.10;99.90;;;;;;4591899;19;19982;-40
2022/08/10 05:01:06;;;;;;;;;;;16.20;99.90;;;;;;4592598;19;19992;-43
2022/08/10 05:02:37;;;;;;;;;;;16.20;99.90;;;;;;4592480;19;19918;-36
2022/08/10 05:04:08;;;;;;;;;;;16.20;99.90;;;;;;4593649;19;19934;-39
2022/08/10 05:05:39;;;;;;;;;;;16.20;99.90;;;;;;4592889;19;19926;-38
2022/08/10 05:07:11;;;;;;;;;;;16.30;99.90;;;;;;4592585;19;19930;-38
2022/08/10 05:08:42;;;;;;;;;;;16.30;99.90;;;;;;4593758;19;19915;-36
2022/08/10 05:10:13;;;;;;;;;;;16.30;99.90;;;;;;4592506;19;20341;-37
2022/08/10 05:11:44;;;;;;;;;;;16.30;99.90;;;;;;4591774;19;19983;-42
2022/08/10 05:13:15;;;;;;;;;;;16.40;99.90;;;;;;4591912;19;20234;-37
2022/08/10 05:14:47;;;;;;;;;;;16.50;99.90;;;;;;4593654;19;19926;-40
2022/08/10 05:16:17;;;;;;;;;;;16.50;99.90;;;;;;4592937;19;19929;-36
2022/08/10 05:17:49;;;;;;;;;;;16.50;99.90;;;;;;4591759;19;19990;-38
2022/08/10 05:19:20;;;;;;;;;;;16.50;99.90;;;;;;4591429;19;19923;-33
2022/08/10 05:20:52;;;;;;;;;;;16.50;99.90;;;;;;4592043;19;19919;-41
2022/08/10 05:22:23;;;;;;;;;;;16.50;99.90;;;;;;4592846;19;19911;-34
2022/08/10 05:23:55;;;;;;;;;;;16.60;99.90;;;;;;4590588;19;20361;-41
2022/08/10 05:25:25;;;;;;;;;;;16.60;99.90;;;;;;4593295;19;19926;-39
2022/08/10 05:26:56;;;;;;;;;;;16.60;99.90;;;;;;4590941;19;19922;-38
2022/08/10 05:28:27;;;;;;;;;;;16.60;99.90;;;;;;4591425;19;19926;-42
2022/08/10 05:29:59;;;;;;;;;;;16.70;99.90;;;;;;4592249;19;19982;-40
2022/08/10 05:31:30;;;;;;;;;;;16.70;99.90;;;;;;4592308;19;20251;-37
2022/08/10 05:33:01;;;;;;;;;;;16.70;99.90;;;;;;4591792;19;19915;-40
2022/08/10 05:34:37;;;;;;;;;;;16.70;99.90;;;;;;4592601;19;19925;-36
2022/08/10 05:36:10;;;;;;;;;;;16.80;99.90;;;;;;4591161;19;19930;-35
2022/08/10 05:37:42;;;;;;;;;;;16.80;99.90;;;;;;4593083;19;20244;-40
2022/08/10 05:39:13;;;;;;;;;;;16.80;99.90;;;;;;4592117;19;19930;-38
2022/08/10 05:40:45;;;;;;;;;;;16.80;99.90;;;;;;4591151;19;19925;-33
2022/08/10 05:42:30;;;;;;;;;;;16.90;99.90;;;;;;4592053;19;20321;-37
2022/08/10 05:44:08;;;;;;;;;;;16.90;99.90;;;;;;4591673;19;19923;-38
2022/08/10 05:45:45;;;;;;;;;;;17.00;99.90;;;;;;4592215;19;19911;-40
2022/08/10 05:47:16;;;;;;;;;;;17.00;99.90;;;;;;4591394;19;19919;-40
2022/08/10 05:48:48;;;;;;;;;;;17.00;99.90;;;;;;4591866;19;19923;-38
2022/08/10 05:52:03;;;;;;;;;;;17.10;99.90;;;;;;4582905;19;20236;-33
2022/08/10 05:53:37;;;;;;;;;;;17.10;99.90;;;;;;4589560;19;20558;-31
2022/08/10 05:55:13;;;;;;;;;;;17.20;99.90;;;;;;4591974;19;19914;-33
2022/08/10 05:56:44;;;;;;;;;;;17.20;99.90;;;;;;4592582;19;19911;-34
2022/08/10 05:58:15;;;;;;;;;;;17.20;99.90;;;;;;4593981;19;20328;-33
2022/08/10 05:59:46;;;;;;;;;;;17.20;99.90;;;;;;4592007;19;19995;-32
2022/08/10 06:01:17;;;;;;;;;;;17.30;99.90;;;;;;4591700;19;19934;-33
2022/08/10 06:02:49;;;;;;;;;;;17.30;99.90;;;;;;4590849;19;20377;-32
2022/08/10 06:04:24;;;;;;;;;;;17.30;99.90;;;;;;4590913;19;19919;-31
2022/08/10 06:05:55;;;;;;;;;;;17.30;99.90;;;;;;4591734;19;19914;-30
2022/08/10 06:07:27;;;;;;;;;;;17.30;99.90;;;;;;4590331;19;19947;-32
2022/08/10 06:08:58;;;;;;;;;;;17.40;99.90;;;;;;4590370;19;19918;-31
2022/08/10 06:10:30;;;;;;;;;;;17.40;99.90;;;;;;4590557;19;19911;-34
2022/08/10 06:12:01;;;;;;;;;;;17.40;99.90;;;;;;4591546;19;19930;-31
2022/08/10 06:15:24;;;;;;;;;;;17.50;99.90;;;;;;4588583;19;19914;-33
2022/08/10 06:17:10;;;;;;;;;;;17.50;99.90;;;;;;4588735;19;19911;-32
2022/08/10 06:18:41;;;;;;;;;;;17.60;99.90;;;;;;4589444;19;20457;-31
2022/08/10 06:20:12;;;;;;;;;;;17.60;99.90;;;;;;4592628;19;19952;-33
2022/08/10 06:21:43;;;;;;;;;;;17.60;99.90;;;;;;4589982;19;19919;-32
2022/08/10 06:23:14;;;;;;;;;;;17.60;99.90;;;;;;4590362;19;19915;-32
2022/08/10 06:24:45;;;;;;;;;;;17.60;99.90;;;;;;4589688;19;19928;-33
2022/08/10 06:26:16;;;;;;;;;;;17.60;99.90;;;;;;4587735;19;19933;-34
2022/08/10 06:27:47;;;;;;;;;;;17.60;99.90;;;;;;4587658;19;19911;-33
2022/08/10 06:29:18;;;;;;;;;;;17.60;99.90;;;;;;4588115;19;19914;-33
2022/08/10 06:30:49;;;;;;;;;;;17.70;99.90;;;;;;4588066;19;19919;-35
2022/08/10 06:32:24;;;;;;;;;;;17.70;99.90;;;;;;4587763;19;19925;-34
2022/08/10 06:33:55;;;;;;;;;;;17.80;99.90;;;;;;4587691;19;19919;-33
2022/08/10 06:35:26;;;;;;;;;;;17.80;99.90;;;;;;4590045;19;20340;-33
2022/08/10 06:36:59;;;;;;;;;;;17.90;99.90;;;;;;4590833;19;19960;-33
2022/08/10 06:38:31;;;;;;;;;;;17.90;99.90;;;;;;4589560;19;19931;-34
2022/08/10 06:40:04;;;;;;;;;;;17.90;99.90;;;;;;4589988;19;19935;-35
2022/08/10 06:41:37;;;;;;;;;;;17.90;99.90;;;;;;4592737;19;19915;-35
2022/08/10 06:43:09;;;;;;;;;;;18.00;99.90;;;;;;4589593;19;19922;-35
2022/08/10 06:44:43;;;;;;;;;;;18.00;99.90;;;;;;4590481;19;20010;-33
2022/08/10 06:46:15;;;;;;;;;;;18.00;99.90;;;;;;4591147;19;19956;-34
2022/08/10 06:47:50;;;;;;;;;;;18.00;99.90;;;;;;4589312;19;20242;-33
2022/08/10 06:49:21;;;;;;;;;;;18.10;99.90;;;;;;4590530;19;20377;-34
2022/08/10 06:50:53;;;;;;;;;;;18.00;99.90;;;;;;4589275;19;19997;-33
2022/08/10 06:52:24;;;;;;;;;;;18.10;99.90;;;;;;4589764;19;19995;-34
2022/08/10 06:53:56;;;;;;;;;;;18.10;99.90;;;;;;4590232;19;19934;-34
2022/08/10 06:55:27;;;;;;;;;;;18.10;99.90;;;;;;4589682;19;19922;-34
2022/08/10 06:56:58;;;;;;;;;;;18.10;99.90;;;;;;4590587;19;19915;-32
2022/08/10 06:58:36;;;;;;;;;;;18.20;99.90;;;;;;4590974;19;19923;-35
2022/08/10 07:00:08;;;;;;;;;;;18.20;99.90;;;;;;4590209;19;20228;-33
2022/08/10 07:01:39;;;;;;;;;;;18.20;99.90;;;;;;4590327;19;19914;-34
2022/08/10 07:03:10;;;;;;;;;;;18.20;99.90;;;;;;4591147;19;19949;-32
2022/08/10 07:04:50;;;;;;;;;;;18.20;99.90;;;;;;4590698;19;19915;-35
2022/08/10 07:06:21;;;;;;;;;;;18.30;99.90;;;;;;4590796;19;19922;-32
2022/08/10 07:07:53;;;;;;;;;;;18.20;99.90;;;;;;4590454;19;20419;-34
2022/08/10 07:09:24;;;;;;;;;;;18.30;99.90;;;;;;4590784;19;19919;-36
2022/08/10 07:10:55;;;;;;;;;;;18.30;99.90;;;;;;4589425;19;20335;-33
2022/08/10 07:12:26;;;;;;;;;;;18.40;99.90;;;;;;4589473;19;19914;-35
2022/08/10 07:13:57;;;;;;;;;;;18.40;99.90;;;;;;4589708;19;19978;-33
2022/08/10 07:15:28;;;;;;;;;;;18.40;99.90;;;;;;4588260;19;19914;-35
2022/08/10 07:16:59;;;;;;;;;;;18.40;99.90;;;;;;4589336;19;19917;-35
2022/08/10 07:18:30;;;;;;;;;;;18.40;99.90;;;;;;4589522;19;19907;-33
2022/08/10 07:20:01;;;;;;;;;;;18.40;99.90;;;;;;4589571;19;19974;-29
2022/08/10 07:24:35;;;;;;;8.73;4.63;;;20.60;99.90;;;;;;1197307;19;21961;-75
2022/08/10 07:25:02;;;;;;;9.40;4.88;;;22.20;99.90;;;;;;1226230;19;20851;-75
2022/08/10 07:25:28;;;;;;;5.75;4.22;;;22.40;99.90;;;;;;1187993;19;20831;-66
2022/08/10 07:28:43;;;;;;;53.72;8.02;;;22.90;99.90;;;;;;4611381;19;20705;-23
2022/08/10 07:30:20;;;;;;;28.90;16.05;;;21.00;99.90;;;;;;4611395;19;20479;-8
2022/08/10 07:31:52;;;;;;;12.15;4.25;;;19.90;99.90;;;;;;4555946;19;20030;-43
2022/08/10 07:33:23;;;;;;;5.20;4.70;;;19.20;99.90;;;;;;4565907;19;20066;-44
2022/08/10 07:34:54;;;;;;;6.50;4.97;;;18.90;99.90;;;;;;4611500;19;20018;-38
2022/08/10 07:36:26;;;;;;;5.13;4.40;;;18.80;99.90;;;;;;4611430;19;20101;-37
2022/08/10 07:37:57;;;;;;;4.80;4.32;;;18.80;99.90;;;;;;4611651;19;20467;-38
2022/08/10 07:39:34;;;;;;;5.38;4.80;;;18.80;99.90;;;;;;4610602;19;20003;-40
2022/08/10 07:41:06;;;;;;;5.85;5.22;;;18.90;99.90;;;;;;4611356;19;20058;-37
2022/08/10 07:42:39;;;;;;;5.45;4.78;;;18.90;99.90;;;;;;4612088;19;20014;-41
2022/08/10 07:44:11;;;;;;;5.03;4.47;;;18.80;99.90;;;;;;4611319;19;20463;-44
2022/08/10 07:45:42;;;;;;;5.35;4.10;;;18.90;99.90;;;;;;4611894;19;20348;-46
2022/08/10 07:47:14;;;;;;;5.30;4.50;;;18.90;99.90;;;;;;4612046;19;20010;-41
2022/08/10 07:48:53;;;;;;;4.82;4.22;;;18.90;99.90;;;;;;4609662;19;20031;-45
2022/08/10 07:50:27;;;;;;;4.43;3.92;;;18.90;99.90;;;;;;4610797;19;20010;-38
2022/08/10 07:52:01;;;;;;;5.20;4.15;;;18.90;99.90;;;;;;4609601;19;20339;-37
2022/08/10 07:53:38;;;;;;;5.70;4.32;;;18.90;99.90;;;;;;4610934;19;20472;-40
2022/08/10 07:55:13;;;;;;;4.60;4.18;;;19.00;99.90;;;;;;4611025;19;20494;-37
2022/08/10 07:56:48;;;;;;;5.13;4.00;;;19.00;99.90;;;;;;4612210;19;20320;-40
2022/08/10 07:58:22;;;;;;;5.18;3.85;;;19.00;99.90;;;;;;4610991;19;20550;-39
2022/08/10 07:59:55;;;;;;;5.00;3.95;;;19.00;99.90;;;;;;4610787;19;20009;-37
2022/08/10 08:01:31;;;;;;;4.85;4.03;;;19.00;99.90;;;;;;4611378;19;20333;-37
2022/08/10 08:03:02;;;;;;;5.13;3.88;;;19.10;99.90;;;;;;4610558;19;20366;-42
2022/08/10 08:04:33;;;;;;;4.78;4.28;;;19.10;99.90;;;;;;4610452;19;20054;-37
2022/08/10 08:06:05;;;;;;;5.10;3.63;;;19.20;99.90;;;;;;4610598;19;20440;-36
2022/08/10 08:07:36;;;;;;;4.57;3.55;;;19.20;99.90;;;;;;4609813;19;20018;-39
2022/08/10 08:09:07;;;;;;;4.38;3.85;;;19.30;99.90;;;;;;4611267;19;20364;-39
2022/08/10 08:10:39;;;;;;;;;;;19.30;99.90;;;;;;4612327;19;20018;-37
2022/08/10 08:12:10;;;;;;;5.07;3.70;;;19.30;99.90;;;;;;4611054;19;19915;-44
2022/08/10 08:13:41;;;;;;;3.80;3.13;;;19.30;99.90;;;;;;4610519;19;20018;-43
2022/08/10 08:15:16;;;;;;;3.55;2.83;;;19.40;99.90;;;;;;4610962;19;20021;-41
2022/08/10 08:16:51;;;;;;;3.70;2.92;;;19.40;99.90;;;;;;4609894;19;20069;-37
2022/08/10 08:18:22;;;;;;;3.17;2.35;;;19.50;99.90;;;;;;4610441;19;20010;-39
2022/08/10 08:19:56;;;;;;;3.00;2.50;;;19.50;99.90;;;;;;4611173;19;20030;-38
2022/08/10 08:21:27;;;;;;;3.63;3.00;;;19.50;99.90;;;;;;4610538;19;20082;-37
2022/08/10 08:22:58;;;;;;;3.70;2.97;;;19.50;99.90;;;;;;4610335;19;20098;-37
2022/08/10 08:24:34;;;;;;;4.25;3.33;;;19.50;99.90;;;;;;4610137;19;20006;-45
2022/08/10 08:26:06;;;;;;;4.00;3.00;;;19.50;99.90;;;;;;4609804;19;20019;-39
2022/08/10 08:27:37;;;;;;;3.65;2.95;;;19.60;99.90;;;;;;4610055;19;20329;-36
2022/08/10 08:29:13;;;;;;;3.50;2.70;;;19.60;99.90;;;;;;4609820;19;20014;-42
2022/08/10 08:30:54;;;;;;;4.07;2.80;;;19.60;99.90;;;;;;4609833;19;20089;-35
2022/08/10 08:32:42;;;;;;;4.68;3.22;;;19.70;99.90;;;;;;4609366;19;20018;-37
2022/08/10 08:34:23;;;;;;;7.63;4.43;;;19.80;99.90;;;;;;4609876;19;20351;-42
2022/08/10 08:35:55;;;;;;;12.60;9.38;;;19.80;99.90;;;;;;4611300;19;20007;-36
2022/08/10 08:37:29;;;;;;;3.65;2.83;;;19.80;99.90;;;;;;4611081;19;20010;-39
2022/08/10 08:39:01;;;;;;;3.22;2.88;;;19.80;99.90;;;;;;4603186;19;20014;-37
2022/08/10 08:40:35;;;;;;;4.15;2.95;;;19.80;99.90;;;;;;4591561;19;20093;-41
2022/08/10 08:42:31;;;;;;;4.10;3.33;;;19.80;99.90;;;;;;4592289;19;20003;-39
2022/08/10 08:44:09;;;;;;;3.47;2.83;;;19.80;99.90;;;;;;4593171;19;20074;-43
2022/08/10 08:46:27;;;;;;;3.72;3.08;;;19.80;99.90;;;;;;4590408;19;20433;-37
2022/08/10 08:48:12;;;;;;;3.55;2.97;;;19.80;99.90;;;;;;4587238;19;20031;-36
2022/08/10 08:50:21;;;;;;;3.20;2.38;;;19.80;99.90;;;;;;4589274;19;20081;-39
2022/08/10 08:51:57;;;;;;;3.30;2.63;;;19.80;99.90;;;;;;4589458;19;20014;-41
2022/08/10 08:54:06;;;;;;;4.07;2.65;;;19.90;99.90;;;;;;4590743;19;20014;-38
2022/08/10 08:56:01;;;;;;;3.55;2.80;;;19.90;99.90;;;;;;4590452;19;20010;-34
2022/08/10 08:57:53;;;;;;;5.05;3.83;;;19.90;99.90;;;;;;4590582;19;20035;-35